sensor_id;sensor_type;location;lat;lon;timestamp;P1;durP1;ratioP1;P2;durP2;ratioP2
72573;SDS011;60603;52.548;13.420;2023-07-31T00:01:54;4.75;;;1.90;;
72573;SDS011;60603;52.548;13.420;2023-07-31T00:04:21;5.57;;;1.58;;
72573;SDS011;60603;52.548;13.420;2023-07-31T00:06:48;2.65;;;1.27;;
72573;SDS011;60603;52.548;13.420;2023-07-31T00:09:14;5.85;;;1.70;;
72573;SDS011;60603;52.548;13.420;2023-07-31T00:11:41;4.05;;;1.30;;
72573;SDS011;60603;52.548;13.420;2023-07-31T00:14:08;3.65;;;1.25;;
72573;SDS011;60603;52.548;13.420;2023-07-31T00:16:35;3.88;;;1.80;;
72573;SDS011;60603;52.548;13.420;2023-07-31T00:19:02;6.43;;;1.77;;
72573;SDS011;60603;52.548;13.420;2023-07-31T00:21:29;5.78;;;1.83;;
72573;SDS011;60603;52.548;13.420;2023-07-31T00:23:56;3.50;;;1.58;;
72573;SDS011;60603;52.548;13.420;2023-07-31T00:26:23;5.45;;;1.52;;
72573;SDS011;60603;52.548;13.420;2023-07-31T00:28:49;4.13;;;1.60;;
72573;SDS011;60603;52.548;13.420;2023-07-31T00:31:16;4.82;;;1.60;;
72573;SDS011;60603;52.548;13.420;2023-07-31T00:33:43;3.75;;;1.45;;
72573;SDS011;60603;52.548;13.420;2023-07-31T00:36:10;6.38;;;1.80;;
72573;SDS011;60603;52.548;13.420;2023-07-31T00:38:37;6.25;;;1.60;;
72573;SDS011;60603;52.548;13.420;2023-07-31T00:41:04;4.00;;;1.40;;
72573;SDS011;60603;52.548;13.420;2023-07-31T00:43:30;4.72;;;1.50;;
72573;SDS011;60603;52.548;13.420;2023-07-31T00:45:57;5.22;;;1.60;;
72573;SDS011;60603;52.548;13.420;2023-07-31T00:48:24;6.40;;;2.17;;
72573;SDS011;60603;52.548;13.420;2023-07-31T00:50:52;3.65;;;1.50;;
72573;SDS011;60603;52.548;13.420;2023-07-31T00:53:18;4.93;;;1.52;;
72573;SDS011;60603;52.548;13.420;2023-07-31T00:55:45;4.78;;;1.40;;
72573;SDS011;60603;52.548;13.420;2023-07-31T00:58:12;4.75;;;1.95;;
72573;SDS011;60603;52.548;13.420;2023-07-31T01:00:39;6.90;;;1.75;;
72573;SDS011;60603;52.548;13.420;2023-07-31T01:03:06;4.35;;;1.60;;
72573;SDS011;60603;52.548;13.420;2023-07-31T01:05:36;4.00;;;1.40;;
72573;SDS011;60603;52.548;13.420;2023-07-31T01:08:12;5.30;;;1.80;;
72573;SDS011;60603;52.548;13.420;2023-07-31T01:10:46;4.28;;;1.40;;
72573;SDS011;60603;52.548;13.420;2023-07-31T01:13:21;4.38;;;1.50;;
72573;SDS011;60603;52.548;13.420;2023-07-31T01:15:48;5.28;;;1.65;;
72573;SDS011;60603;52.548;13.420;2023-07-31T01:18:15;5.20;;;1.65;;
72573;SDS011;60603;52.548;13.420;2023-07-31T01:20:42;4.38;;;1.48;;
72573;SDS011;60603;52.548;13.420;2023-07-31T01:23:30;4.05;;;1.77;;
72573;SDS011;60603;52.548;13.420;2023-07-31T01:26:03;4.03;;;1.70;;
72573;SDS011;60603;52.548;13.420;2023-07-31T01:31:24;6.05;;;1.63;;
72573;SDS011;60603;52.548;13.420;2023-07-31T01:33:54;5.03;;;1.73;;
72573;SDS011;60603;52.548;13.420;2023-07-31T01:36:23;5.55;;;1.90;;
72573;SDS011;60603;52.548;13.420;2023-07-31T01:38:50;8.02;;;2.17;;
72573;SDS011;60603;52.548;13.420;2023-07-31T01:41:17;6.47;;;1.60;;
72573;SDS011;60603;52.548;13.420;2023-07-31T01:43:47;8.00;;;1.83;;
72573;SDS011;60603;52.548;13.420;2023-07-31T01:46:15;5.88;;;1.85;;
72573;SDS011;60603;52.548;13.420;2023-07-31T01:48:41;5.38;;;1.90;;
72573;SDS011;60603;52.548;13.420;2023-07-31T01:51:08;5.55;;;1.83;;
72573;SDS011;60603;52.548;13.420;2023-07-31T01:53:35;6.30;;;1.95;;
72573;SDS011;60603;52.548;13.420;2023-07-31T01:56:02;4.10;;;1.90;;
72573;SDS011;60603;52.548;13.420;2023-07-31T01:58:29;5.45;;;1.80;;
72573;SDS011;60603;52.548;13.420;2023-07-31T02:00:56;4.93;;;1.98;;
72573;SDS011;60603;52.548;13.420;2023-07-31T02:03:26;4.40;;;1.92;;
72573;SDS011;60603;52.548;13.420;2023-07-31T02:05:54;4.88;;;1.90;;
72573;SDS011;60603;52.548;13.420;2023-07-31T02:08:21;4.57;;;1.80;;
72573;SDS011;60603;52.548;13.420;2023-07-31T02:10:47;4.70;;;2.00;;
72573;SDS011;60603;52.548;13.420;2023-07-31T02:13:14;6.50;;;1.98;;
72573;SDS011;60603;52.548;13.420;2023-07-31T02:15:41;3.88;;;1.90;;
72573;SDS011;60603;52.548;13.420;2023-07-31T02:18:08;4.93;;;2.00;;
72573;SDS011;60603;52.548;13.420;2023-07-31T02:20:35;4.72;;;2.00;;
72573;SDS011;60603;52.548;13.420;2023-07-31T02:23:02;3.95;;;1.70;;
72573;SDS011;60603;52.548;13.420;2023-07-31T02:25:29;6.28;;;2.20;;
72573;SDS011;60603;52.548;13.420;2023-07-31T02:27:56;5.05;;;1.70;;
72573;SDS011;60603;52.548;13.420;2023-07-31T02:30:23;5.88;;;1.90;;
72573;SDS011;60603;52.548;13.420;2023-07-31T02:32:50;4.95;;;1.90;;
72573;SDS011;60603;52.548;13.420;2023-07-31T02:35:17;6.75;;;2.50;;
72573;SDS011;60603;52.548;13.420;2023-07-31T02:37:45;5.65;;;2.40;;
72573;SDS011;60603;52.548;13.420;2023-07-31T02:40:12;6.40;;;2.10;;
72573;SDS011;60603;52.548;13.420;2023-07-31T02:42:39;6.30;;;2.25;;
72573;SDS011;60603;52.548;13.420;2023-07-31T02:45:06;5.18;;;2.42;;
72573;SDS011;60603;52.548;13.420;2023-07-31T02:47:33;5.03;;;2.17;;
72573;SDS011;60603;52.548;13.420;2023-07-31T02:50:00;5.13;;;1.95;;
72573;SDS011;60603;52.548;13.420;2023-07-31T02:52:28;5.95;;;2.00;;
72573;SDS011;60603;52.548;13.420;2023-07-31T02:54:55;6.15;;;2.20;;
72573;SDS011;60603;52.548;13.420;2023-07-31T02:57:22;5.78;;;2.10;;
72573;SDS011;60603;52.548;13.420;2023-07-31T02:59:49;4.22;;;2.10;;
72573;SDS011;60603;52.548;13.420;2023-07-31T03:02:15;6.55;;;2.45;;
72573;SDS011;60603;52.548;13.420;2023-07-31T03:04:42;5.80;;;2.50;;
72573;SDS011;60603;52.548;13.420;2023-07-31T03:07:09;7.10;;;2.63;;
72573;SDS011;60603;52.548;13.420;2023-07-31T03:09:36;6.75;;;2.47;;
72573;SDS011;60603;52.548;13.420;2023-07-31T03:12:03;6.10;;;2.25;;
72573;SDS011;60603;52.548;13.420;2023-07-31T03:14:30;6.28;;;2.47;;
72573;SDS011;60603;52.548;13.420;2023-07-31T03:16:57;5.97;;;2.53;;
72573;SDS011;60603;52.548;13.420;2023-07-31T03:19:23;4.07;;;2.13;;
72573;SDS011;60603;52.548;13.420;2023-07-31T03:21:50;5.63;;;2.35;;
72573;SDS011;60603;52.548;13.420;2023-07-31T03:24:17;5.95;;;2.60;;
72573;SDS011;60603;52.548;13.420;2023-07-31T03:26:44;7.13;;;2.88;;
72573;SDS011;60603;52.548;13.420;2023-07-31T03:29:11;8.18;;;2.75;;
72573;SDS011;60603;52.548;13.420;2023-07-31T03:31:37;6.28;;;3.08;;
72573;SDS011;60603;52.548;13.420;2023-07-31T03:34:04;5.82;;;2.88;;
72573;SDS011;60603;52.548;13.420;2023-07-31T03:36:31;7.70;;;3.30;;
72573;SDS011;60603;52.548;13.420;2023-07-31T03:38:58;6.60;;;2.80;;
72573;SDS011;60603;52.548;13.420;2023-07-31T03:41:25;6.78;;;3.17;;
72573;SDS011;60603;52.548;13.420;2023-07-31T03:43:52;7.88;;;3.42;;
72573;SDS011;60603;52.548;13.420;2023-07-31T03:46:18;7.65;;;2.85;;
72573;SDS011;60603;52.548;13.420;2023-07-31T03:48:46;7.30;;;2.95;;
72573;SDS011;60603;52.548;13.420;2023-07-31T03:51:12;5.10;;;3.25;;
72573;SDS011;60603;52.548;13.420;2023-07-31T03:53:39;6.28;;;2.95;;
72573;SDS011;60603;52.548;13.420;2023-07-31T03:56:06;5.47;;;2.63;;
72573;SDS011;60603;52.548;13.420;2023-07-31T03:58:33;6.97;;;3.40;;
72573;SDS011;60603;52.548;13.420;2023-07-31T04:01:01;7.70;;;2.70;;
72573;SDS011;60603;52.548;13.420;2023-07-31T04:03:28;8.88;;;3.72;;
72573;SDS011;60603;52.548;13.420;2023-07-31T04:05:55;6.28;;;2.97;;
72573;SDS011;60603;52.548;13.420;2023-07-31T04:08:23;6.47;;;2.90;;
72573;SDS011;60603;52.548;13.420;2023-07-31T04:10:50;7.20;;;2.80;;
72573;SDS011;60603;52.548;13.420;2023-07-31T04:13:17;6.63;;;3.55;;
72573;SDS011;60603;52.548;13.420;2023-07-31T04:15:47;5.45;;;2.67;;
72573;SDS011;60603;52.548;13.420;2023-07-31T04:18:17;7.43;;;3.05;;
72573;SDS011;60603;52.548;13.420;2023-07-31T04:20:44;7.40;;;3.25;;
72573;SDS011;60603;52.548;13.420;2023-07-31T04:23:11;8.05;;;3.10;;
72573;SDS011;60603;52.548;13.420;2023-07-31T04:25:38;9.60;;;4.18;;
72573;SDS011;60603;52.548;13.420;2023-07-31T04:28:05;6.72;;;3.28;;
72573;SDS011;60603;52.548;13.420;2023-07-31T04:30:32;6.35;;;2.97;;
72573;SDS011;60603;52.548;13.420;2023-07-31T04:32:59;8.98;;;3.17;;
72573;SDS011;60603;52.548;13.420;2023-07-31T04:35:26;5.68;;;3.20;;
72573;SDS011;60603;52.548;13.420;2023-07-31T04:37:53;7.03;;;3.00;;
72573;SDS011;60603;52.548;13.420;2023-07-31T04:40:20;9.20;;;3.08;;
72573;SDS011;60603;52.548;13.420;2023-07-31T04:42:48;6.47;;;3.17;;
72573;SDS011;60603;52.548;13.420;2023-07-31T04:45:15;5.75;;;2.50;;
72573;SDS011;60603;52.548;13.420;2023-07-31T04:47:42;7.65;;;3.38;;
72573;SDS011;60603;52.548;13.420;2023-07-31T04:50:09;9.82;;;2.70;;
72573;SDS011;60603;52.548;13.420;2023-07-31T04:52:36;6.28;;;3.10;;
72573;SDS011;60603;52.548;13.420;2023-07-31T04:55:03;7.57;;;2.90;;
72573;SDS011;60603;52.548;13.420;2023-07-31T04:57:30;7.50;;;2.78;;
72573;SDS011;60603;52.548;13.420;2023-07-31T04:59:56;6.68;;;2.60;;
72573;SDS011;60603;52.548;13.420;2023-07-31T05:02:23;7.25;;;2.60;;
72573;SDS011;60603;52.548;13.420;2023-07-31T05:04:51;8.60;;;3.10;;
72573;SDS011;60603;52.548;13.420;2023-07-31T05:07:18;6.35;;;2.95;;
72573;SDS011;60603;52.548;13.420;2023-07-31T05:09:44;11.10;;;2.97;;
72573;SDS011;60603;52.548;13.420;2023-07-31T05:12:11;6.30;;;2.67;;
72573;SDS011;60603;52.548;13.420;2023-07-31T05:14:39;7.07;;;2.65;;
72573;SDS011;60603;52.548;13.420;2023-07-31T05:17:06;7.03;;;3.00;;
72573;SDS011;60603;52.548;13.420;2023-07-31T05:19:33;6.45;;;2.40;;
72573;SDS011;60603;52.548;13.420;2023-07-31T05:22:00;8.77;;;2.85;;
72573;SDS011;60603;52.548;13.420;2023-07-31T05:24:27;5.55;;;2.60;;
72573;SDS011;60603;52.548;13.420;2023-07-31T05:26:54;7.47;;;3.05;;
72573;SDS011;60603;52.548;13.420;2023-07-31T05:29:21;6.18;;;2.78;;
72573;SDS011;60603;52.548;13.420;2023-07-31T05:31:47;5.32;;;2.47;;
72573;SDS011;60603;52.548;13.420;2023-07-31T05:34:14;6.05;;;2.53;;
72573;SDS011;60603;52.548;13.420;2023-07-31T05:36:41;6.13;;;2.67;;
72573;SDS011;60603;52.548;13.420;2023-07-31T05:39:08;5.10;;;2.55;;
72573;SDS011;60603;52.548;13.420;2023-07-31T05:41:35;7.45;;;2.97;;
72573;SDS011;60603;52.548;13.420;2023-07-31T05:44:02;6.13;;;2.63;;
72573;SDS011;60603;52.548;13.420;2023-07-31T05:46:29;5.90;;;2.80;;
72573;SDS011;60603;52.548;13.420;2023-07-31T05:48:58;5.78;;;2.60;;
72573;SDS011;60603;52.548;13.420;2023-07-31T05:51:27;6.10;;;2.95;;
72573;SDS011;60603;52.548;13.420;2023-07-31T05:53:54;9.00;;;2.88;;
72573;SDS011;60603;52.548;13.420;2023-07-31T05:56:21;5.10;;;2.30;;
72573;SDS011;60603;52.548;13.420;2023-07-31T05:58:48;5.68;;;2.67;;
72573;SDS011;60603;52.548;13.420;2023-07-31T06:01:16;6.00;;;3.03;;
72573;SDS011;60603;52.548;13.420;2023-07-31T06:03:43;6.53;;;3.15;;
72573;SDS011;60603;52.548;13.420;2023-07-31T06:06:11;5.25;;;2.28;;
72573;SDS011;60603;52.548;13.420;2023-07-31T06:08:37;5.72;;;2.22;;
72573;SDS011;60603;52.548;13.420;2023-07-31T06:11:04;6.28;;;2.30;;
72573;SDS011;60603;52.548;13.420;2023-07-31T06:13:32;5.82;;;2.33;;
72573;SDS011;60603;52.548;13.420;2023-07-31T06:15:59;8.05;;;2.63;;
72573;SDS011;60603;52.548;13.420;2023-07-31T06:18:26;6.13;;;2.22;;
72573;SDS011;60603;52.548;13.420;2023-07-31T06:20:54;6.20;;;2.67;;
72573;SDS011;60603;52.548;13.420;2023-07-31T06:23:21;7.63;;;2.80;;
72573;SDS011;60603;52.548;13.420;2023-07-31T06:25:48;7.70;;;2.25;;
72573;SDS011;60603;52.548;13.420;2023-07-31T06:28:15;9.82;;;3.10;;
72573;SDS011;60603;52.548;13.420;2023-07-31T06:30:42;9.25;;;2.58;;
72573;SDS011;60603;52.548;13.420;2023-07-31T06:33:09;4.93;;;2.22;;
72573;SDS011;60603;52.548;13.420;2023-07-31T06:35:36;4.20;;;2.58;;
72573;SDS011;60603;52.548;13.420;2023-07-31T06:38:04;6.30;;;2.63;;
72573;SDS011;60603;52.548;13.420;2023-07-31T06:40:31;8.20;;;2.42;;
72573;SDS011;60603;52.548;13.420;2023-07-31T06:42:58;7.38;;;2.50;;
72573;SDS011;60603;52.548;13.420;2023-07-31T06:45:25;7.78;;;2.13;;
72573;SDS011;60603;52.548;13.420;2023-07-31T06:47:52;10.40;;;3.78;;
72573;SDS011;60603;52.548;13.420;2023-07-31T06:50:19;6.75;;;2.40;;
72573;SDS011;60603;52.548;13.420;2023-07-31T06:52:46;4.93;;;2.28;;
72573;SDS011;60603;52.548;13.420;2023-07-31T06:55:17;10.15;;;4.38;;
72573;SDS011;60603;52.548;13.420;2023-07-31T06:57:49;6.15;;;3.10;;
72573;SDS011;60603;52.548;13.420;2023-07-31T07:00:17;10.55;;;2.83;;
72573;SDS011;60603;52.548;13.420;2023-07-31T07:02:44;4.95;;;2.20;;
72573;SDS011;60603;52.548;13.420;2023-07-31T07:07:41;4.93;;;2.30;;
72573;SDS011;60603;52.548;13.420;2023-07-31T07:10:08;4.88;;;2.25;;
72573;SDS011;60603;52.548;13.420;2023-07-31T07:12:35;7.78;;;2.45;;
72573;SDS011;60603;52.548;13.420;2023-07-31T07:15:03;7.90;;;2.33;;
72573;SDS011;60603;52.548;13.420;2023-07-31T07:17:31;7.07;;;2.17;;
72573;SDS011;60603;52.548;13.420;2023-07-31T07:19:58;5.45;;;2.25;;
72573;SDS011;60603;52.548;13.420;2023-07-31T07:22:26;6.63;;;2.33;;
72573;SDS011;60603;52.548;13.420;2023-07-31T07:24:54;5.00;;;1.90;;
72573;SDS011;60603;52.548;13.420;2023-07-31T07:27:21;4.38;;;2.28;;
72573;SDS011;60603;52.548;13.420;2023-07-31T07:29:49;6.30;;;2.10;;
72573;SDS011;60603;52.548;13.420;2023-07-31T07:32:17;4.10;;;1.70;;
72573;SDS011;60603;52.548;13.420;2023-07-31T07:34:45;6.15;;;1.60;;
72573;SDS011;60603;52.548;13.420;2023-07-31T07:37:11;5.35;;;2.20;;
72573;SDS011;60603;52.548;13.420;2023-07-31T07:39:38;6.38;;;1.83;;
72573;SDS011;60603;52.548;13.420;2023-07-31T07:42:07;6.72;;;2.05;;
72573;SDS011;60603;52.548;13.420;2023-07-31T07:44:34;3.63;;;1.77;;
72573;SDS011;60603;52.548;13.420;2023-07-31T07:47:01;4.97;;;2.00;;
72573;SDS011;60603;52.548;13.420;2023-07-31T07:49:28;6.55;;;2.15;;
72573;SDS011;60603;52.548;13.420;2023-07-31T07:51:55;5.40;;;2.10;;
72573;SDS011;60603;52.548;13.420;2023-07-31T07:54:22;5.35;;;1.83;;
72573;SDS011;60603;52.548;13.420;2023-07-31T07:56:49;5.53;;;1.73;;
72573;SDS011;60603;52.548;13.420;2023-07-31T07:59:17;5.55;;;2.03;;
72573;SDS011;60603;52.548;13.420;2023-07-31T08:01:43;6.32;;;2.88;;
72573;SDS011;60603;52.548;13.420;2023-07-31T08:04:10;7.90;;;3.45;;
72573;SDS011;60603;52.548;13.420;2023-07-31T08:06:37;5.72;;;2.33;;
72573;SDS011;60603;52.548;13.420;2023-07-31T08:09:05;4.70;;;1.85;;
72573;SDS011;60603;52.548;13.420;2023-07-31T08:11:33;4.25;;;2.10;;
72573;SDS011;60603;52.548;13.420;2023-07-31T08:14:00;5.03;;;2.05;;
72573;SDS011;60603;52.548;13.420;2023-07-31T08:16:27;5.45;;;2.00;;
72573;SDS011;60603;52.548;13.420;2023-07-31T08:18:54;6.10;;;2.25;;
72573;SDS011;60603;52.548;13.420;2023-07-31T08:21:21;4.25;;;2.05;;
72573;SDS011;60603;52.548;13.420;2023-07-31T08:23:49;5.45;;;2.00;;
72573;SDS011;60603;52.548;13.420;2023-07-31T08:26:16;6.25;;;2.10;;
72573;SDS011;60603;52.548;13.420;2023-07-31T08:28:44;5.07;;;1.95;;
72573;SDS011;60603;52.548;13.420;2023-07-31T08:31:10;4.88;;;1.90;;
72573;SDS011;60603;52.548;13.420;2023-07-31T08:33:38;3.30;;;1.58;;
72573;SDS011;60603;52.548;13.420;2023-07-31T08:36:06;2.80;;;1.50;;
72573;SDS011;60603;52.548;13.420;2023-07-31T08:38:33;3.33;;;1.50;;
72573;SDS011;60603;52.548;13.420;2023-07-31T08:41:02;4.88;;;1.63;;
72573;SDS011;60603;52.548;13.420;2023-07-31T08:43:30;4.45;;;2.05;;
72573;SDS011;60603;52.548;13.420;2023-07-31T08:45:57;4.57;;;2.13;;
72573;SDS011;60603;52.548;13.420;2023-07-31T08:48:24;5.22;;;1.67;;
72573;SDS011;60603;52.548;13.420;2023-07-31T08:50:52;5.05;;;1.70;;
72573;SDS011;60603;52.548;13.420;2023-07-31T08:53:19;4.35;;;1.70;;
72573;SDS011;60603;52.548;13.420;2023-07-31T08:55:47;5.75;;;1.75;;
72573;SDS011;60603;52.548;13.420;2023-07-31T08:58:15;3.78;;;1.73;;
72573;SDS011;60603;52.548;13.420;2023-07-31T09:00:42;4.10;;;1.65;;
72573;SDS011;60603;52.548;13.420;2023-07-31T09:03:15;4.55;;;1.70;;
72573;SDS011;60603;52.548;13.420;2023-07-31T09:05:49;3.42;;;1.67;;
72573;SDS011;60603;52.548;13.420;2023-07-31T09:08:20;4.25;;;1.50;;
72573;SDS011;60603;52.548;13.420;2023-07-31T09:10:48;4.60;;;1.60;;
72573;SDS011;60603;52.548;13.420;2023-07-31T09:13:18;4.38;;;1.60;;
72573;SDS011;60603;52.548;13.420;2023-07-31T09:15:45;5.22;;;1.83;;
72573;SDS011;60603;52.548;13.420;2023-07-31T09:18:12;5.20;;;2.13;;
72573;SDS011;60603;52.548;13.420;2023-07-31T09:20:44;3.83;;;1.50;;
72573;SDS011;60603;52.548;13.420;2023-07-31T09:23:12;4.18;;;1.60;;
72573;SDS011;60603;52.548;13.420;2023-07-31T09:25:45;5.22;;;1.85;;
72573;SDS011;60603;52.548;13.420;2023-07-31T09:28:13;6.07;;;1.42;;
72573;SDS011;60603;52.548;13.420;2023-07-31T09:30:47;3.53;;;1.73;;
72573;SDS011;60603;52.548;13.420;2023-07-31T09:33:17;3.67;;;1.50;;
72573;SDS011;60603;52.548;13.420;2023-07-31T09:35:46;4.10;;;1.40;;
72573;SDS011;60603;52.548;13.420;2023-07-31T09:38:15;3.95;;;2.25;;
72573;SDS011;60603;52.548;13.420;2023-07-31T09:40:46;3.35;;;1.70;;
72573;SDS011;60603;52.548;13.420;2023-07-31T09:43:18;3.65;;;1.25;;
72573;SDS011;60603;52.548;13.420;2023-07-31T09:45:46;4.63;;;1.80;;
72573;SDS011;60603;52.548;13.420;2023-07-31T09:48:14;2.47;;;1.20;;
72573;SDS011;60603;52.548;13.420;2023-07-31T09:50:46;4.15;;;1.40;;
72573;SDS011;60603;52.548;13.420;2023-07-31T09:55:41;4.63;;;1.65;;
72573;SDS011;60603;52.548;13.420;2023-07-31T09:58:11;2.70;;;1.20;;
72573;SDS011;60603;52.548;13.420;2023-07-31T10:00:38;2.85;;;1.20;;
72573;SDS011;60603;52.548;13.420;2023-07-31T10:03:06;3.90;;;1.35;;
72573;SDS011;60603;52.548;13.420;2023-07-31T10:05:36;4.25;;;1.60;;
72573;SDS011;60603;52.548;13.420;2023-07-31T10:08:06;3.85;;;2.03;;
72573;SDS011;60603;52.548;13.420;2023-07-31T10:10:39;3.60;;;1.50;;
72573;SDS011;60603;52.548;13.420;2023-07-31T10:13:08;4.35;;;1.75;;
72573;SDS011;60603;52.548;13.420;2023-07-31T10:15:36;7.00;;;3.70;;
72573;SDS011;60603;52.548;13.420;2023-07-31T10:18:05;4.10;;;2.10;;
72573;SDS011;60603;52.548;13.420;2023-07-31T10:23:00;4.40;;;2.30;;
72573;SDS011;60603;52.548;13.420;2023-07-31T10:25:28;5.18;;;2.20;;
72573;SDS011;60603;52.548;13.420;2023-07-31T10:27:56;5.82;;;2.20;;
72573;SDS011;60603;52.548;13.420;2023-07-31T10:30:24;5.30;;;2.03;;
72573;SDS011;60603;52.548;13.420;2023-07-31T10:35:20;6.43;;;2.70;;
72573;SDS011;60603;52.548;13.420;2023-07-31T10:37:51;4.72;;;2.40;;
72573;SDS011;60603;52.548;13.420;2023-07-31T10:40:19;7.05;;;2.38;;
72573;SDS011;60603;52.548;13.420;2023-07-31T10:45:25;5.00;;;2.42;;
72573;SDS011;60603;52.548;13.420;2023-07-31T10:47:59;5.53;;;2.50;;
72573;SDS011;60603;52.548;13.420;2023-07-31T10:50:31;6.18;;;2.83;;
72573;SDS011;60603;52.548;13.420;2023-07-31T10:53:02;6.90;;;2.50;;
72573;SDS011;60603;52.548;13.420;2023-07-31T10:55:42;6.45;;;3.05;;
72573;SDS011;60603;52.548;13.420;2023-07-31T10:58:13;5.55;;;2.42;;
72573;SDS011;60603;52.548;13.420;2023-07-31T11:00:41;6.53;;;2.78;;
72573;SDS011;60603;52.548;13.420;2023-07-31T11:03:10;5.82;;;2.92;;
72573;SDS011;60603;52.548;13.420;2023-07-31T11:05:41;7.80;;;2.83;;
72573;SDS011;60603;52.548;13.420;2023-07-31T11:08:12;8.40;;;2.72;;
72573;SDS011;60603;52.548;13.420;2023-07-31T11:10:38;6.18;;;2.80;;
72573;SDS011;60603;52.548;13.420;2023-07-31T11:13:06;5.70;;;2.88;;
72573;SDS011;60603;52.548;13.420;2023-07-31T11:15:32;8.48;;;3.88;;
72573;SDS011;60603;52.548;13.420;2023-07-31T11:18:00;7.78;;;3.25;;
72573;SDS011;60603;52.548;13.420;2023-07-31T11:20:30;4.65;;;2.15;;
72573;SDS011;60603;52.548;13.420;2023-07-31T11:23:07;5.78;;;2.45;;
72573;SDS011;60603;52.548;13.420;2023-07-31T11:25:35;5.40;;;2.35;;
72573;SDS011;60603;52.548;13.420;2023-07-31T11:28:04;5.40;;;2.67;;
72573;SDS011;60603;52.548;13.420;2023-07-31T11:30:33;9.63;;;2.50;;
72573;SDS011;60603;52.548;13.420;2023-07-31T11:33:01;7.82;;;2.58;;
72573;SDS011;60603;52.548;13.420;2023-07-31T11:35:33;7.13;;;2.65;;
72573;SDS011;60603;52.548;13.420;2023-07-31T11:38:01;5.55;;;2.53;;
72573;SDS011;60603;52.548;13.420;2023-07-31T11:40:28;6.57;;;2.80;;
72573;SDS011;60603;52.548;13.420;2023-07-31T11:42:59;7.22;;;2.60;;
72573;SDS011;60603;52.548;13.420;2023-07-31T11:45:31;7.50;;;2.55;;
72573;SDS011;60603;52.548;13.420;2023-07-31T11:47:59;5.50;;;2.83;;
72573;SDS011;60603;52.548;13.420;2023-07-31T11:50:27;7.05;;;2.70;;
72573;SDS011;60603;52.548;13.420;2023-07-31T11:53:06;5.85;;;2.35;;
72573;SDS011;60603;52.548;13.420;2023-07-31T11:55:34;6.45;;;2.50;;
72573;SDS011;60603;52.548;13.420;2023-07-31T11:58:02;6.47;;;2.55;;
72573;SDS011;60603;52.548;13.420;2023-07-31T12:00:29;8.35;;;2.70;;
72573;SDS011;60603;52.548;13.420;2023-07-31T12:02:57;5.38;;;2.28;;
72573;SDS011;60603;52.548;13.420;2023-07-31T12:05:24;7.15;;;2.85;;
72573;SDS011;60603;52.548;13.420;2023-07-31T12:07:52;4.35;;;2.05;;
72573;SDS011;60603;52.548;13.420;2023-07-31T12:15:29;5.72;;;2.40;;
72573;SDS011;60603;52.548;13.420;2023-07-31T12:17:58;5.13;;;2.38;;
72573;SDS011;60603;52.548;13.420;2023-07-31T12:20:25;7.78;;;2.42;;
72573;SDS011;60603;52.548;13.420;2023-07-31T12:22:55;6.97;;;2.60;;
72573;SDS011;60603;52.548;13.420;2023-07-31T12:25:28;7.03;;;2.92;;
72573;SDS011;60603;52.548;13.420;2023-07-31T12:28:05;4.55;;;2.03;;
72573;SDS011;60603;52.548;13.420;2023-07-31T12:30:34;6.20;;;2.60;;
72573;SDS011;60603;52.548;13.420;2023-07-31T12:33:12;6.88;;;2.53;;
72573;SDS011;60603;52.548;13.420;2023-07-31T12:35:43;7.70;;;3.88;;
72573;SDS011;60603;52.548;13.420;2023-07-31T12:38:12;9.93;;;3.75;;
72573;SDS011;60603;52.548;13.420;2023-07-31T12:40:40;6.75;;;3.00;;
72573;SDS011;60603;52.548;13.420;2023-07-31T12:43:08;5.65;;;2.13;;
72573;SDS011;60603;52.548;13.420;2023-07-31T12:45:36;5.95;;;2.50;;
72573;SDS011;60603;52.548;13.420;2023-07-31T12:48:04;6.05;;;2.17;;
72573;SDS011;60603;52.548;13.420;2023-07-31T12:50:32;5.18;;;2.00;;
72573;SDS011;60603;52.548;13.420;2023-07-31T12:53:00;7.22;;;2.53;;
72573;SDS011;60603;52.548;13.420;2023-07-31T12:55:26;5.90;;;2.30;;
72573;SDS011;60603;52.548;13.420;2023-07-31T12:57:54;7.45;;;2.13;;
72573;SDS011;60603;52.548;13.420;2023-07-31T13:00:22;5.68;;;2.17;;
72573;SDS011;60603;52.548;13.420;2023-07-31T13:02:49;5.47;;;2.40;;
72573;SDS011;60603;52.548;13.420;2023-07-31T13:05:16;5.28;;;2.13;;
72573;SDS011;60603;52.548;13.420;2023-07-31T13:07:44;6.18;;;2.20;;
72573;SDS011;60603;52.548;13.420;2023-07-31T13:10:11;4.90;;;2.10;;
72573;SDS011;60603;52.548;13.420;2023-07-31T13:12:39;4.22;;;1.77;;
72573;SDS011;60603;52.548;13.420;2023-07-31T13:15:06;8.20;;;2.42;;
72573;SDS011;60603;52.548;13.420;2023-07-31T13:17:34;4.75;;;2.05;;
72573;SDS011;60603;52.548;13.420;2023-07-31T13:20:01;6.85;;;1.92;;
72573;SDS011;60603;52.548;13.420;2023-07-31T13:22:30;4.32;;;1.60;;
72573;SDS011;60603;52.548;13.420;2023-07-31T13:24:59;5.35;;;2.70;;
72573;SDS011;60603;52.548;13.420;2023-07-31T13:27:27;5.53;;;2.00;;
72573;SDS011;60603;52.548;13.420;2023-07-31T13:29:54;4.10;;;1.83;;
72573;SDS011;60603;52.548;13.420;2023-07-31T13:32:21;3.65;;;1.60;;
72573;SDS011;60603;52.548;13.420;2023-07-31T13:34:49;6.88;;;2.20;;
72573;SDS011;60603;52.548;13.420;2023-07-31T13:37:17;3.72;;;1.63;;
72573;SDS011;60603;52.548;13.420;2023-07-31T13:39:46;4.28;;;1.85;;
72573;SDS011;60603;52.548;13.420;2023-07-31T13:42:14;3.10;;;1.70;;
72573;SDS011;60603;52.548;13.420;2023-07-31T13:44:41;4.68;;;2.10;;
72573;SDS011;60603;52.548;13.420;2023-07-31T13:47:09;6.25;;;2.40;;
72573;SDS011;60603;52.548;13.420;2023-07-31T13:49:36;4.30;;;2.10;;
72573;SDS011;60603;52.548;13.420;2023-07-31T13:52:05;7.07;;;2.50;;
72573;SDS011;60603;52.548;13.420;2023-07-31T13:54:33;7.55;;;2.78;;
72573;SDS011;60603;52.548;13.420;2023-07-31T13:57:00;7.47;;;2.28;;
72573;SDS011;60603;52.548;13.420;2023-07-31T13:59:27;4.95;;;2.55;;
72573;SDS011;60603;52.548;13.420;2023-07-31T14:01:55;6.70;;;2.47;;
72573;SDS011;60603;52.548;13.420;2023-07-31T14:04:22;5.80;;;2.42;;
72573;SDS011;60603;52.548;13.420;2023-07-31T14:06:50;5.97;;;2.30;;
72573;SDS011;60603;52.548;13.420;2023-07-31T14:09:17;6.43;;;2.10;;
72573;SDS011;60603;52.548;13.420;2023-07-31T14:11:48;5.88;;;2.50;;
72573;SDS011;60603;52.548;13.420;2023-07-31T14:14:15;9.25;;;3.88;;
72573;SDS011;60603;52.548;13.420;2023-07-31T14:16:42;7.40;;;3.33;;
72573;SDS011;60603;52.548;13.420;2023-07-31T14:19:10;9.48;;;2.60;;
72573;SDS011;60603;52.548;13.420;2023-07-31T14:21:37;8.43;;;3.22;;
72573;SDS011;60603;52.548;13.420;2023-07-31T14:24:04;5.75;;;2.35;;
72573;SDS011;60603;52.548;13.420;2023-07-31T14:26:31;7.45;;;3.00;;
72573;SDS011;60603;52.548;13.420;2023-07-31T14:28:58;7.50;;;2.83;;
72573;SDS011;60603;52.548;13.420;2023-07-31T14:31:26;4.97;;;2.65;;
72573;SDS011;60603;52.548;13.420;2023-07-31T14:33:53;6.20;;;2.75;;
72573;SDS011;60603;52.548;13.420;2023-07-31T14:36:24;5.93;;;2.28;;
72573;SDS011;60603;52.548;13.420;2023-07-31T14:38:51;5.90;;;2.28;;
72573;SDS011;60603;52.548;13.420;2023-07-31T14:41:18;5.85;;;2.50;;
72573;SDS011;60603;52.548;13.420;2023-07-31T14:43:45;6.13;;;2.50;;
72573;SDS011;60603;52.548;13.420;2023-07-31T14:46:12;6.25;;;2.78;;
72573;SDS011;60603;52.548;13.420;2023-07-31T14:48:39;7.28;;;2.85;;
72573;SDS011;60603;52.548;13.420;2023-07-31T14:51:06;9.93;;;3.80;;
72573;SDS011;60603;52.548;13.420;2023-07-31T14:53:33;11.63;;;5.47;;
72573;SDS011;60603;52.548;13.420;2023-07-31T14:56:00;4.53;;;2.38;;
72573;SDS011;60603;52.548;13.420;2023-07-31T14:58:27;5.65;;;2.40;;